Time;durP1;ratioP1;P1;durP2;ratioP2;P2;SDS_P1;SDS_P2;PMS_P1;PMS_P2;Temp;Humidity;BMP_temperature;BMP_pressure;BME280_temperature;BME280_humidity;BME280_pressure;Samples;Min_cycle;Max_cycle;Signal;HPM_P1;HPM_P2
2023/05/29 00:01:10;;;;;;;11.67;4.80;;;12.20;99.90;;;;;;5053204;28;20253;-74
2023/05/29 00:03:37;;;;;;;9.70;4.60;;;12.10;99.90;;;;;;5054469;28;20564;-74
2023/05/29 00:06:05;;;;;;;11.37;4.70;;;12.10;99.90;;;;;;5054730;28;20215;-75
2023/05/29 00:08:32;;;;;;;9.97;4.67;;;12.10;99.90;;;;;;5053182;28;20211;-74
2023/05/29 00:10:59;;;;;;;10.77;4.73;;;12.20;99.90;;;;;;5054314;28;20210;-75
2023/05/29 00:13:26;;;;;;;8.40;4.30;;;12.20;99.90;;;;;;5054394;28;20186;-72
2023/05/29 00:15:53;;;;;;;9.43;4.93;;;12.20;99.90;;;;;;5053071;28;20272;-74
2023/05/29 00:18:21;;;;;;;9.20;4.77;;;12.10;99.90;;;;;;5054506;28;20191;-75
2023/05/29 00:20:48;;;;;;;9.53;4.93;;;12.10;99.90;;;;;;5052850;28;20218;-74
2023/05/29 00:23:15;;;;;;;10.30;5.53;;;12.10;99.90;;;;;;5054286;28;20602;-75
2023/05/29 00:25:42;;;;;;;10.40;4.33;;;12.10;99.90;;;;;;5036293;28;20313;-75
2023/05/29 00:28:11;;;;;;;9.03;5.00;;;12.00;99.90;;;;;;5036185;28;20218;-75
2023/05/29 00:30:41;;;;;;;8.57;5.37;;;11.90;99.90;;;;;;5052828;28;20683;-74
2023/05/29 00:33:08;;;;;;;9.73;5.13;;;11.90;99.90;;;;;;5052793;28;20222;-75
2023/05/29 00:35:37;;;;;;;9.37;5.63;;;11.90;99.90;;;;;;5053717;28;20217;-75
2023/05/29 00:38:04;;;;;;;8.40;5.27;;;11.80;99.90;;;;;;5052680;28;20646;-75
2023/05/29 00:40:31;;;;;;;12.43;5.33;;;11.70;99.90;;;;;;5053828;28;20310;-75
2023/05/29 00:42:58;;;;;;;10.03;5.17;;;11.70;99.90;;;;;;5052654;28;20720;-76
2023/05/29 00:45:26;;;;;;;13.80;5.47;;;11.70;99.90;;;;;;5052255;28;20835;-75
2023/05/29 00:47:53;;;;;;;12.03;5.17;;;11.60;99.90;;;;;;5035774;28;20202;-75
2023/05/29 00:50:21;;;;;;;12.53;5.77;;;11.60;99.90;;;;;;5052122;28;20702;-75
2023/05/29 00:52:48;;;;;;;9.43;4.90;;;11.60;99.90;;;;;;5052451;28;20199;-74
2023/05/29 00:55:16;;;;;;;12.27;5.60;;;11.60;99.90;;;;;;5035610;28;20237;-75
2023/05/29 00:57:43;;;;;;;12.90;5.60;;;11.60;99.90;;;;;;5052124;28;20666;-74
2023/05/29 01:00:13;;;;;;;10.93;5.37;;;11.60;99.90;;;;;;5053359;28;20615;-74
2023/05/29 01:02:44;;;;;;;10.93;5.53;;;11.60;99.90;;;;;;5051961;28;20193;-74
2023/05/29 01:05:13;;;;;;;12.03;5.80;;;11.50;99.90;;;;;;5035629;28;20221;-74
2023/05/29 01:07:40;;;;;;;12.07;6.40;;;11.50;99.90;;;;;;5035734;28;20209;-74
2023/05/29 01:10:09;;;;;;;12.83;5.87;;;11.40;99.90;;;;;;5051694;28;20265;-74
2023/05/29 01:13:01;;;;;;;10.17;5.87;;;11.40;99.90;;;;;;5051613;28;20195;-74
2023/05/29 01:16:14;;;;;;;10.80;5.60;;;11.40;99.90;;;;;;5051586;28;20195;-74
2023/05/29 01:18:53;;;;;;;9.77;5.70;;;11.20;99.90;;;;;;5051604;28;20647;-74
2023/05/29 01:21:49;;;;;;;10.10;5.97;;;11.20;99.90;;;;;;5051875;28;20658;-74
2023/05/29 01:24:46;;;;;;;14.03;5.90;;;11.10;99.90;;;;;;5052901;28;20203;-74
2023/05/29 01:27:17;;;;;;;11.60;6.30;;;11.10;99.90;;;;;;5051505;28;20248;-74
2023/05/29 01:30:09;;;;;;;11.63;6.40;;;11.00;99.90;;;;;;5052662;28;20655;-74
2023/05/29 01:32:36;;;;;;;9.27;5.70;;;11.00;99.90;;;;;;5051678;28;20237;-74
2023/05/29 01:35:04;;;;;;;12.57;6.27;;;11.00;99.90;;;;;;5051329;28;20709;-74
2023/05/29 01:37:31;;;;;;;14.63;6.00;;;10.90;99.90;;;;;;5051699;28;20286;-74
2023/05/29 01:39:59;;;;;;;13.27;6.47;;;10.90;99.90;;;;;;5034723;28;20210;-73
2023/05/29 01:42:28;;;;;;;11.20;5.90;;;10.80;99.90;;;;;;5052640;28;20269;-73
2023/05/29 01:44:56;;;;;;;12.20;6.10;;;10.80;99.90;;;;;;5051138;28;20273;-74
2023/05/29 01:47:24;;;;;;;10.60;6.17;;;10.80;99.90;;;;;;5052594;28;20191;-76
2023/05/29 01:49:52;;;;;;;11.30;6.47;;;10.70;99.90;;;;;;5051238;28;20674;-75
2023/05/29 01:52:19;;;;;;;11.27;6.10;;;10.70;99.90;;;;;;5034696;28;20293;-74
2023/05/29 01:54:46;;;;;;;12.70;6.50;;;10.70;99.90;;;;;;5052376;28;20682;-74
2023/05/29 01:57:13;;;;;;;11.70;6.57;;;10.60;99.90;;;;;;5034561;28;20240;-74
2023/05/29 01:59:41;;;;;;;13.17;6.83;;;10.60;99.90;;;;;;5034508;28;20222;-74
2023/05/29 02:02:09;;;;;;;10.37;6.30;;;10.50;99.90;;;;;;5034655;28;20218;-74
2023/05/29 02:04:36;;;;;;;12.37;6.43;;;10.50;99.90;;;;;;5051026;28;20264;-74
2023/05/29 02:07:03;;;;;;;10.07;6.57;;;10.50;99.90;;;;;;5051220;28;20253;-74
2023/05/29 02:09:30;;;;;;;12.63;6.67;;;10.50;99.90;;;;;;5050944;28;20214;-74
2023/05/29 02:11:57;;;;;;;14.13;6.67;;;10.40;99.90;;;;;;5051026;28;20198;-74
2023/05/29 02:14:25;;;;;;;14.03;6.87;;;10.40;99.90;;;;;;5050881;28;20306;-74
2023/05/29 02:16:52;;;;;;;12.80;7.20;;;10.40;99.90;;;;;;5051215;28;20245;-75
2023/05/29 02:19:19;;;;;;;15.67;7.40;;;10.40;99.90;;;;;;5052353;28;20234;-75
2023/05/29 02:21:47;;;;;;;11.20;6.80;;;10.40;99.90;;;;;;5052088;28;20238;-75
2023/05/29 02:24:15;;;;;;;11.90;6.37;;;10.40;99.90;;;;;;5034340;28;20729;-74
2023/05/29 02:26:42;;;;;;;13.90;7.23;;;10.40;99.90;;;;;;5050897;28;20215;-74
2023/05/29 02:29:10;;;;;;;13.20;6.93;;;10.40;99.90;;;;;;5034357;28;20243;-74
2023/05/29 02:31:37;;;;;;;15.37;7.03;;;10.40;99.90;;;;;;5050804;28;20588;-74
2023/05/29 02:34:04;;;;;;;12.63;6.70;;;10.40;99.90;;;;;;5034640;28;20211;-73
2023/05/29 02:36:31;;;;;;;13.03;6.70;;;10.40;99.90;;;;;;5034346;28;20655;-74
2023/05/29 02:38:58;;;;;;;10.03;6.60;;;10.30;99.90;;;;;;5050926;28;20286;-74
2023/05/29 02:41:25;;;;;;;11.47;6.60;;;10.30;99.90;;;;;;5054581;28;20289;-75
2023/05/29 02:43:52;;;;;;;12.40;7.20;;;10.30;99.90;;;;;;5056024;28;20219;-75
2023/05/29 02:46:19;;;;;;;13.80;7.30;;;10.30;99.90;;;;;;5055983;28;20750;-75
2023/05/29 02:48:47;;;;;;;11.00;6.67;;;10.30;99.90;;;;;;5054597;28;20830;-75
2023/05/29 02:51:14;;;;;;;13.20;6.83;;;10.30;99.90;;;;;;5054884;28;20202;-75
2023/05/29 02:53:41;;;;;;;12.90;6.70;;;10.30;99.90;;;;;;5038106;28;20671;-75
2023/05/29 02:56:08;;;;;;;10.97;6.50;;;10.30;99.90;;;;;;5055495;28;20232;-74
2023/05/29 02:58:35;;;;;;;12.53;6.70;;;10.30;99.90;;;;;;5054449;28;20186;-75
2023/05/29 03:01:04;;;;;;;13.53;7.10;;;10.30;99.90;;;;;;5054183;28;20245;-75
2023/05/29 03:03:31;;;;;;;12.77;6.93;;;10.30;99.90;;;;;;5055494;28;20183;-75
2023/05/29 03:06:00;;;;;;;13.90;6.80;;;10.30;99.90;;;;;;5054416;28;20215;-75
2023/05/29 03:08:28;;;;;;;15.17;7.33;;;10.30;99.90;;;;;;5054157;28;20722;-74
2023/05/29 03:10:55;;;;;;;14.33;6.97;;;10.30;99.90;;;;;;5055584;28;20215;-75
2023/05/29 03:13:22;;;;;;;13.80;7.00;;;10.30;99.90;;;;;;5037655;28;20195;-74
2023/05/29 03:15:50;;;;;;;12.33;7.27;;;10.20;99.90;;;;;;5055180;28;20215;-74
2023/05/29 03:18:17;;;;;;;13.20;7.07;;;10.30;99.90;;;;;;5054008;28;20187;-75
2023/05/29 03:20:44;;;;;;;12.57;7.47;;;10.30;99.90;;;;;;5054068;28;20301;-75
2023/05/29 03:23:11;;;;;;;13.00;7.47;;;10.30;99.90;;;;;;5037410;28;20194;-74
2023/05/29 03:25:38;;;;;;;11.77;7.20;;;10.30;99.90;;;;;;5055123;28;20214;-75
2023/05/29 03:28:05;;;;;;;13.67;7.10;;;10.40;99.90;;;;;;5055116;28;20236;-74
2023/05/29 03:30:32;;;;;;;13.90;7.67;;;10.40;99.90;;;;;;5037296;28;20272;-75
2023/05/29 03:33:03;;;;;;;13.23;7.23;;;10.50;99.90;;;;;;5055044;28;20206;-75
2023/05/29 03:35:30;;;;;;;12.73;7.37;;;10.50;99.90;;;;;;5053966;28;20215;-74
2023/05/29 03:37:57;;;;;;;11.47;7.30;;;10.60;99.90;;;;;;5037159;28;20281;-75
2023/05/29 03:40:24;;;;;;;13.13;7.53;;;10.70;99.90;;;;;;5054946;28;20242;-75
2023/05/29 03:42:51;;;;;;;13.70;7.27;;;10.80;99.90;;;;;;5037296;28;20309;-73
2023/05/29 03:45:18;;;;;;;12.90;7.00;;;10.90;99.90;;;;;;5053431;28;20223;-75
2023/05/29 03:47:45;;;;;;;13.27;7.37;;;10.90;99.90;;;;;;5054758;28;20269;-75
2023/05/29 03:50:14;;;;;;;11.37;7.67;;;10.90;99.90;;;;;;5053077;28;20217;-75
2023/05/29 03:52:42;;;;;;;14.50;7.10;;;11.00;99.90;;;;;;5036886;28;20725;-74
2023/05/29 03:55:14;;;;;;;14.10;7.37;;;11.10;99.90;;;;;;5036820;28;20223;-75
2023/05/29 03:57:41;;;;;;;15.10;7.60;;;11.20;99.90;;;;;;5053078;28;20230;-75
2023/05/29 04:00:10;;;;;;;15.80;7.70;;;11.30;99.90;;;;;;5053090;28;20238;-74
2023/05/29 04:02:41;;;;;;;15.67;8.10;;;11.40;99.90;;;;;;5053436;28;20289;-75
2023/05/29 04:05:12;;;;;;;14.13;7.50;;;11.40;99.90;;;;;;5053174;28;20227;-75
2023/05/29 04:07:39;;;;;;;18.53;7.97;;;11.50;99.90;;;;;;5053616;28;20183;-75
2023/05/29 04:10:07;;;;;;;20.17;8.07;;;11.60;99.90;;;;;;5036642;28;20305;-75
2023/05/29 04:12:34;;;;;;;19.13;8.27;;;11.70;99.90;;;;;;5052934;28;20289;-74
2023/05/29 04:15:02;;;;;;;19.10;7.53;;;11.80;99.90;;;;;;5052883;28;20241;-75
2023/05/29 04:17:29;;;;;;;11.10;6.83;;;11.90;99.90;;;;;;5054412;28;20659;-73
2023/05/29 04:19:57;;;;;;;15.93;7.70;;;11.90;99.90;;;;;;5054179;28;20207;-72
2023/05/29 04:22:24;;;;;;;13.43;7.00;;;12.00;99.90;;;;;;5054017;28;20202;-73
2023/05/29 04:24:51;;;;;;;13.93;7.20;;;12.10;99.90;;;;;;5052521;28;20219;-73
2023/05/29 04:27:18;;;;;;;14.33;6.80;;;12.20;99.90;;;;;;5052644;28;20282;-74
2023/05/29 04:29:44;;;;;;;13.43;6.60;;;12.30;99.90;;;;;;5052549;28;20219;-74
2023/05/29 04:32:12;;;;;;;13.20;6.10;;;12.30;99.90;;;;;;5053961;28;20217;-74
2023/05/29 04:34:39;;;;;;;14.57;6.40;;;12.40;99.90;;;;;;5036072;28;20317;-75
2023/05/29 04:37:06;;;;;;;12.17;6.33;;;12.50;99.90;;;;;;5053867;28;20221;-75
2023/05/29 04:39:33;;;;;;;11.57;6.07;;;12.60;99.90;;;;;;5036242;28;20314;-72
2023/05/29 04:42:00;;;;;;;10.83;5.90;;;12.70;99.90;;;;;;5052525;28;20720;-74
2023/05/29 04:44:29;;;;;;;11.10;5.70;;;12.70;99.90;;;;;;5035887;28;20222;-74
2023/05/29 04:46:58;;;;;;;12.67;6.37;;;12.80;99.90;;;;;;5053538;28;20240;-73
2023/05/29 04:49:25;;;;;;;10.43;5.90;;;13.00;99.90;;;;;;5052307;28;20702;-74
2023/05/29 04:51:52;;;;;;;10.50;5.90;;;13.00;99.90;;;;;;5035676;28;20730;-74
2023/05/29 04:54:21;;;;;;;14.27;6.00;;;13.10;99.90;;;;;;5052172;28;20238;-74
2023/05/29 04:56:48;;;;;;;9.83;6.10;;;13.20;99.90;;;;;;5051819;28;20329;-74
2023/05/29 04:59:15;;;;;;;9.33;5.90;;;13.30;99.90;;;;;;5052050;28;20562;-74
2023/05/29 05:01:44;;;;;;;12.27;5.70;;;13.40;99.90;;;;;;5035263;28;20322;-76
2023/05/29 05:04:11;;;;;;;10.80;5.03;;;13.50;99.90;;;;;;5052064;28;20238;-76
2023/05/29 05:06:39;;;;;;;9.43;4.97;;;13.50;99.90;;;;;;5035498;28;20610;-76
2023/05/29 05:09:06;;;;;;;9.83;4.70;;;13.60;99.90;;;;;;5051919;28;20260;-76
2023/05/29 05:11:33;;;;;;;11.27;5.17;;;13.70;99.90;;;;;;5051821;28;20202;-75
2023/05/29 05:14:00;;;;;;;6.70;4.47;;;13.80;99.90;;;;;;5051671;28;20195;-77
2023/05/29 05:16:27;;;;;;;9.57;4.63;;;13.90;99.90;;;;;;5052191;28;20206;-76
2023/05/29 05:18:54;;;;;;;8.53;4.53;;;14.00;99.90;;;;;;5053317;28;20191;-77
2023/05/29 05:21:21;;;;;;;8.87;4.60;;;14.00;99.90;;;;;;5051631;28;20250;-77
2023/05/29 05:23:48;;;;;;;7.53;4.37;;;14.10;99.90;;;;;;5051525;28;20217;-77
2023/05/29 05:26:26;;;;;;;10.97;5.00;;;14.20;99.90;;;;;;5053034;28;20233;-78
2023/05/29 05:28:53;;;;;;;8.77;4.47;;;14.30;99.90;;;;;;5053297;28;20726;-79
2023/05/29 05:31:21;;;;;;;8.83;4.43;;;14.40;99.90;;;;;;5051671;28;20243;-78
2023/05/29 05:33:48;;;;;;;6.97;4.20;;;14.50;99.90;;;;;;5051533;28;20276;-78
2023/05/29 05:36:15;;;;;;;9.47;4.30;;;14.60;99.90;;;;;;5051544;28;20245;-77
2023/05/29 05:38:42;;;;;;;10.00;3.90;;;14.70;99.90;;;;;;5053011;28;20245;-78
2023/05/29 05:41:09;;;;;;;11.83;3.90;;;14.80;99.90;;;;;;5034920;28;20225;-78
2023/05/29 05:43:36;;;;;;;15.20;4.43;;;14.90;99.90;;;;;;5052743;28;20242;-78
2023/05/29 05:46:03;;;;;;;20.70;5.80;;;15.00;99.90;;;;;;5051636;28;20321;-79
2023/05/29 05:48:30;;;;;;;18.23;5.03;;;15.00;99.90;;;;;;5051348;28;20202;-78
2023/05/29 05:50:57;;;;;;;10.53;4.20;;;15.10;99.90;;;;;;5051207;28;20241;-76
2023/05/29 05:53:25;;;;;;;13.43;4.40;;;15.20;99.90;;;;;;5051172;28;20663;-76
2023/05/29 05:55:52;;;;;;;9.23;4.00;;;15.40;99.90;;;;;;5051346;28;20268;-76
2023/05/29 05:58:19;;;;;;;15.60;4.07;;;15.40;99.90;;;;;;5050915;28;20737;-79
2023/05/29 06:00:46;;;;;;;17.40;4.50;;;15.50;99.90;;;;;;5051444;28;20206;-76
2023/05/29 06:03:13;;;;;;;10.10;4.17;;;15.60;99.90;;;;;;5052371;28;20257;-78
2023/05/29 06:05:41;;;;;;;17.60;4.83;;;15.80;99.90;;;;;;5052365;28;20699;-79
2023/05/29 06:08:08;;;;;;;7.17;3.80;;;15.90;99.90;;;;;;5051240;28;20584;-79
2023/05/29 06:10:35;;;;;;;9.87;4.17;;;16.00;99.90;;;;;;5051006;28;20280;-84
2023/05/29 06:13:02;;;;;;;12.23;4.07;;;16.10;99.90;;;;;;5035218;28;20670;-81
2023/05/29 06:15:29;;;;;;;18.77;5.00;;;16.30;99.90;;;;;;5056545;28;20268;-81
2023/05/29 06:18:00;;;;;;;9.47;3.93;;;16.50;99.90;;;;;;5056410;28;20183;-82
2023/05/29 06:20:27;;;;;;;8.27;4.07;;;16.60;99.90;;;;;;5055109;28;20222;-81
2023/05/29 06:22:55;;;;;;;14.90;4.07;;;16.70;99.90;;;;;;5038436;28;20210;-81
2023/05/29 06:25:29;;;;;;;8.93;3.70;;;16.80;99.90;;;;;;5055268;28;20207;-83
2023/05/29 06:27:56;;;;;;;15.20;3.97;;;17.00;99.90;;;;;;5056456;28;20182;-80
2023/05/29 06:30:23;;;;;;;10.83;4.10;;;17.00;99.90;;;;;;5056159;28;20207;-81
2023/05/29 06:32:50;;;;;;;11.60;4.43;;;17.10;99.90;;;;;;5055107;28;20218;-84
2023/05/29 06:35:17;;;;;;;10.90;3.67;;;17.20;99.90;;;;;;5056473;28;20215;-82
2023/05/29 06:37:45;;;;;;;9.63;3.43;;;17.30;99.90;;;;;;5056308;28;20220;-81
2023/05/29 06:40:15;;;;;;;11.73;3.67;;;17.40;99.90;;;;;;5038650;28;20207;-82
2023/05/29 06:42:45;;;;;;;9.20;4.00;;;17.60;99.90;;;;;;5054780;28;20221;-81
2023/05/29 06:45:13;;;;;;;10.63;3.57;;;17.70;99.90;;;;;;5054665;28;20798;-81
2023/05/29 06:47:41;;;;;;;9.97;3.10;;;17.80;99.90;;;;;;5055120;28;20423;-80
2023/05/29 06:50:09;;;;;;;10.73;3.10;;;17.80;99.90;;;;;;5057813;28;20210;-81
2023/05/29 06:52:36;;;;;;;6.93;3.00;;;18.00;99.90;;;;;;5060438;28;20257;-81
2023/05/29 06:55:03;;;;;;;9.00;2.93;;;18.00;99.90;;;;;;5057859;28;20222;-80
2023/05/29 06:57:30;;;;;;;7.47;2.60;;;18.00;99.90;;;;;;5042695;28;20244;-80
2023/05/29 06:59:57;;;;;;;11.93;2.97;;;18.00;99.90;;;;;;5059440;28;20235;-81
2023/05/29 07:02:24;;;;;;;6.03;2.60;;;18.20;99.90;;;;;;5042655;28;20229;-83
2023/05/29 07:04:51;;;;;;;6.33;2.10;;;18.30;99.90;;;;;;5041898;28;20229;-84
2023/05/29 07:07:18;;;;;;;6.63;2.50;;;18.30;99.90;;;;;;5055421;28;20235;-83
2023/05/29 07:09:45;;;;;;;8.67;2.00;;;18.30;99.90;;;;;;5038335;28;20841;-83
2023/05/29 07:12:12;;;;;;;4.33;1.70;;;18.30;99.90;;;;;;5056428;28;20198;-83
2023/05/29 07:14:39;;;;;;;7.27;1.90;;;18.30;99.90;;;;;;5055200;28;20218;-84
2023/05/29 07:17:06;;;;;;;3.40;1.80;;;18.30;99.90;;;;;;5055197;28;20187;-84
2023/05/29 07:19:33;;;;;;;4.67;1.20;;;18.50;99.90;;;;;;5055170;28;20682;-84
2023/05/29 07:22:00;;;;;;;5.03;1.40;;;18.50;99.90;;;;;;5056064;28;20206;-84
2023/05/29 07:24:50;;;;;;;7.07;1.53;;;18.70;99.90;;;;;;5053738;28;20286;-84
2023/05/29 07:27:17;;;;;;;4.50;1.60;;;18.80;99.90;;;;;;5054774;28;20290;-84
2023/05/29 07:29:44;;;;;;;5.37;1.87;;;18.90;99.90;;;;;;5054484;28;20211;-85
2023/05/29 07:32:11;;;;;;;4.33;2.20;;;19.00;99.90;;;;;;5054817;28;20209;-84
2023/05/29 07:34:38;;;;;;;4.40;1.93;;;19.00;99.90;;;;;;5056663;28;20219;-84
2023/05/29 07:37:06;;;;;;;8.03;1.80;;;19.10;99.60;;;;;;5056041;28;20325;-84
2023/05/29 07:39:35;;;;;;;10.73;2.80;;;19.20;99.90;;;;;;5054550;28;20207;-85
2023/05/29 07:42:02;;;;;;;3.63;1.90;;;19.30;99.90;;;;;;5055188;28;20215;-83
2023/05/29 07:44:30;;;;;;;2.53;1.70;;;19.40;99.90;;;;;;5056070;28;20625;-84
2023/05/29 07:46:56;;;;;;;5.67;2.10;;;19.40;99.90;;;;;;5038278;28;20194;-84
2023/05/29 07:49:24;;;;;;;5.50;1.53;;;19.50;99.70;;;;;;5055145;28;20213;-83
2023/05/29 07:51:51;;;;;;;7.30;2.00;;;19.50;97.90;;;;;;5054386;28;20195;-84
2023/05/29 07:54:20;;;;;;;4.80;1.63;;;19.50;97.30;;;;;;5037250;28;20256;-85
2023/05/29 07:56:47;;;;;;;8.23;2.40;;;19.70;96.80;;;;;;5053827;28;20226;-85
2023/05/29 07:59:14;;;;;;;7.00;1.77;;;19.70;97.30;;;;;;5053864;28;20218;-86
2023/05/29 08:01:42;;;;;;;3.77;1.53;;;19.80;95.00;;;;;;5053809;28;20335;-84
2023/05/29 08:04:09;;;;;;;4.57;1.73;;;20.00;94.50;;;;;;5053611;28;20215;-86
2023/05/29 08:06:36;;;;;;;2.40;1.40;;;20.00;94.30;;;;;;5055615;28;20193;-86
2023/05/29 08:09:04;;;;;;;4.83;1.50;;;19.90;92.00;;;;;;5054123;28;20215;-85
2023/05/29 08:11:31;;;;;;;3.97;1.30;;;19.90;93.80;;;;;;5054132;28;20217;-85
2023/05/29 08:13:59;;;;;;;4.67;1.70;;;20.00;93.30;;;;;;5054370;28;20202;-85
2023/05/29 08:16:27;;;;;;;4.37;1.47;;;20.30;94.10;;;;;;5059766;28;20324;-83
2023/05/29 08:18:55;;;;;;;6.80;1.90;;;20.60;92.40;;;;;;5040789;28;20281;-84
2023/05/29 08:21:22;;;;;;;6.30;1.30;;;21.30;91.90;;;;;;5056322;28;20712;-83
2023/05/29 08:23:48;;;;;;;4.88;1.40;;;22.20;86.90;;;;;;5055715;28;20214;-84
2023/05/29 08:26:15;;;;;;;4.70;1.50;;;22.90;81.30;;;;;;5045462;28;20225;-84
2023/05/29 08:28:42;;;;;;;6.10;1.70;;;23.50;78.20;;;;;;5040662;28;20195;-85
2023/05/29 08:31:09;;;;;;;3.00;1.48;;;23.90;75.10;;;;;;5054546;28;20194;-85
2023/05/29 08:33:36;;;;;;;2.78;1.55;;;24.30;70.10;;;;;;5055281;28;20209;-85
2023/05/29 08:36:04;;;;;;;7.05;1.65;;;24.30;70.20;;;;;;5055629;28;20214;-85
2023/05/29 08:38:31;;;;;;;4.07;1.33;;;24.80;69.80;;;;;;5055967;28;20294;-86
2023/05/29 08:40:59;;;;;;;4.13;1.35;;;25.40;70.00;;;;;;5056464;28;20214;-87
2023/05/29 08:43:50;;;;;;;2.38;1.35;;;25.40;66.60;;;;;;5054483;28;20210;-86
2023/05/29 08:46:19;;;;;;;3.15;1.42;;;26.10;62.00;;;;;;5036514;28;20201;-85
2023/05/29 08:48:49;;;;;;;3.38;1.50;;;26.00;61.60;;;;;;5060183;28;20195;-85
2023/05/29 08:51:21;;;;;;;4.68;1.50;;;25.90;59.60;;;;;;5041226;28;20221;-85
2023/05/29 08:53:49;;;;;;;5.05;1.50;;;26.20;58.50;;;;;;5039570;28;20646;-85
2023/05/29 08:56:16;;;;;;;2.40;1.25;;;26.20;61.30;;;;;;5055468;28;20199;-85
2023/05/29 08:59:02;;;;;;;2.85;1.50;;;26.50;60.40;;;;;;5053463;28;20639;-84
2023/05/29 09:01:35;;;;;;;3.45;1.30;;;26.60;58.40;;;;;;5054024;28;20627;-84
2023/05/29 09:04:24;;;;;;;4.70;1.52;;;26.60;57.40;;;;;;5052585;28;20214;-84
2023/05/29 09:06:55;;;;;;;5.90;1.45;;;26.80;57.50;;;;;;5052427;28;20580;-85
2023/05/29 09:09:23;;;;;;;6.53;1.55;;;27.30;57.30;;;;;;5052545;28;20207;-85
2023/05/29 09:11:51;;;;;;;5.40;1.50;;;27.40;56.20;;;;;;5052264;28;20221;-85
2023/05/29 09:14:44;;;;;;;3.88;1.52;;;27.50;57.10;;;;;;5053999;28;20199;-85
2023/05/29 09:17:13;;;;;;;2.55;1.40;;;27.30;55.50;;;;;;5052791;28;20195;-85
2023/05/29 09:19:40;;;;;;;6.28;1.50;;;27.40;55.80;;;;;;5054008;28;20708;-86
2023/05/29 09:22:17;;;;;;;4.53;1.73;;;27.30;55.40;;;;;;5052647;28;20249;-87
2023/05/29 09:24:48;;;;;;;4.93;1.83;;;27.00;53.90;;;;;;5036371;28;20273;-86
2023/05/29 09:27:15;;;;;;;6.80;1.80;;;26.80;54.20;;;;;;5036025;28;20199;-86
2023/05/29 09:29:43;;;;;;;3.28;1.60;;;26.80;55.20;;;;;;5052294;28;20219;-87
2023/05/29 09:32:11;;;;;;;5.13;1.50;;;26.90;55.70;;;;;;5052644;28;20559;-87
2023/05/29 09:34:39;;;;;;;3.97;1.80;;;27.10;55.80;;;;;;5052407;28;20207;-86
2023/05/29 09:37:08;;;;;;;5.07;1.70;;;27.30;56.50;;;;;;5053632;28;20187;-86
2023/05/29 09:39:41;;;;;;;5.80;1.77;;;27.70;55.50;;;;;;5039103;28;20335;-88
2023/05/29 09:42:11;;;;;;;7.10;1.77;;;27.60;54.50;;;;;;5056149;28;20187;-87
2023/05/29 09:44:44;;;;;;;8.40;1.90;;;27.50;54.60;;;;;;5053396;28;20238;-86
2023/05/29 09:47:17;;;;;;;5.70;1.88;;;27.70;53.70;;;;;;5053354;28;20206;-86
2023/05/29 09:49:48;;;;;;;3.85;1.75;;;27.90;53.40;;;;;;5054479;28;20222;-85
2023/05/29 09:52:21;;;;;;;8.15;1.80;;;28.20;53.50;;;;;;5052563;28;20242;-84
2023/05/29 09:54:50;;;;;;;7.85;1.85;;;28.30;51.90;;;;;;5035928;28;20241;-85
2023/05/29 09:57:18;;;;;;;4.93;1.70;;;28.30;51.50;;;;;;5053436;28;20222;-87
2023/05/29 09:59:51;;;;;;;4.70;2.00;;;28.60;52.40;;;;;;5039541;28;20222;-86
2023/05/29 10:02:18;;;;;;;6.03;1.80;;;28.80;49.70;;;;;;5051656;28;20217;-89
2023/05/29 10:04:45;;;;;;;8.18;1.88;;;28.90;52.00;;;;;;5052786;28;20210;-86
2023/05/29 10:07:35;;;;;;;3.35;1.70;;;29.10;51.00;;;;;;5052641;28;20230;-87
2023/05/29 10:10:07;;;;;;;4.65;2.05;;;29.20;52.60;;;;;;5035218;28;20233;-88
2023/05/29 10:12:39;;;;;;;5.55;2.10;;;29.30;49.90;;;;;;5053090;28;20201;-88
2023/05/29 10:15:14;;;;;;;7.40;2.00;;;29.00;49.70;;;;;;5053074;28;20219;-88
2023/05/29 10:18:04;;;;;;;8.68;1.95;;;29.20;49.30;;;;;;5051913;28;20198;-86
2023/05/29 10:20:33;;;;;;;6.80;2.17;;;29.20;51.00;;;;;;5052001;28;20702;-88
2023/05/29 10:23:02;;;;;;;5.50;1.90;;;29.40;51.30;;;;;;5034805;28;20229;-87
2023/05/29 10:25:32;;;;;;;7.32;2.10;;;29.80;49.60;;;;;;5051421;28;20215;-88
2023/05/29 10:28:00;;;;;;;5.32;1.90;;;30.00;49.20;;;;;;5051844;28;20195;-89
2023/05/29 10:30:41;;;;;;;5.90;2.00;;;30.20;49.80;;;;;;5050979;28;20276;-86
2023/05/29 10:33:17;;;;;;;4.07;1.90;;;30.00;48.40;;;;;;5051475;28;20187;-87
2023/05/29 10:36:26;;;;;;;4.07;2.30;;;29.40;48.30;;;;;;5052228;28;20182;-87
2023/05/29 10:38:53;;;;;;;5.90;1.90;;;29.40;48.90;;;;;;5050951;28;20187;-88
2023/05/29 10:41:26;;;;;;;3.83;1.88;;;29.50;48.20;;;;;;5035148;28;20199;-93
2023/05/29 10:43:58;;;;;;;5.10;1.88;;;29.70;51.10;;;;;;5035972;28;20231;-93
2023/05/29 10:46:44;;;;;;;3.33;1.70;;;30.10;48.20;;;;;;5053148;28;20687;-90
2023/05/29 10:49:18;;;;;;;6.03;1.70;;;30.50;48.60;;;;;;5035060;28;20211;-95
2023/05/29 10:51:46;;;;;;;7.03;1.95;;;31.10;48.40;;;;;;5051690;28;20187;-91
2023/05/29 10:54:13;;;;;;;5.63;2.00;;;31.10;46.00;;;;;;5051468;28;20276;-91
2023/05/29 10:56:43;;;;;;;4.63;2.00;;;31.10;46.60;;;;;;5034478;28;20230;-88
2023/05/29 10:59:10;;;;;;;3.90;2.05;;;31.20;46.90;;;;;;5034319;28;20215;-87
2023/05/29 11:01:40;;;;;;;3.63;2.00;;;31.50;46.50;;;;;;5054741;28;20187;-87
2023/05/29 11:04:20;;;;;;;6.60;2.00;;;31.50;46.10;;;;;;5054635;28;20227;-88
2023/05/29 11:06:47;;;;;;;6.78;2.03;;;31.20;45.50;;;;;;5056549;28;20195;-92
2023/05/29 11:09:30;;;;;;;4.88;1.75;;;31.40;45.40;;;;;;5055960;28;20209;-89
2023/05/29 11:12:14;;;;;;;4.95;2.17;;;31.30;45.80;;;;;;5055308;28;20203;-92
2023/05/29 11:14:46;;;;;;;8.50;2.40;;;31.20;45.40;;;;;;5037866;28;20218;-90
2023/05/29 11:17:39;;;;;;;6.72;2.30;;;30.80;45.10;;;;;;5055465;28;20191;-88
2023/05/29 11:20:20;;;;;;;5.43;1.90;;;31.20;45.00;;;;;;5056271;28;20815;-90
2023/05/29 11:22:59;;;;;;;4.75;2.00;;;31.50;46.50;;;;;;5054112;28;20662;-89
2023/05/29 11:25:27;;;;;;;4.95;1.80;;;31.70;45.70;;;;;;5055457;28;20253;-88
2023/05/29 11:27:54;;;;;;;4.03;2.17;;;31.90;44.00;;;;;;5053844;28;20368;-88
2023/05/29 11:30:22;;;;;;;7.40;2.00;;;31.80;43.90;;;;;;5053633;28;20241;-87
2023/05/29 11:32:52;;;;;;;5.88;2.22;;;31.80;44.10;;;;;;5053957;28;20197;-87
2023/05/29 11:35:22;;;;;;;4.78;2.00;;;31.50;45.10;;;;;;5054026;28;20217;-87
2023/05/29 11:37:50;;;;;;;5.57;2.15;;;30.20;45.30;;;;;;5054061;28;20260;-89
2023/05/29 11:40:18;;;;;;;3.63;2.00;;;30.80;45.00;;;;;;5054990;28;20210;-86
2023/05/29 11:42:48;;;;;;;7.78;2.45;;;31.30;45.40;;;;;;5054777;28;20639;-86
2023/05/29 11:45:21;;;;;;;6.93;2.17;;;31.50;44.00;;;;;;5055084;28;20791;-86
2023/05/29 11:47:57;;;;;;;6.72;2.30;;;31.80;44.60;;;;;;5054065;28;20191;-89
2023/05/29 11:50:26;;;;;;;7.75;1.92;;;32.30;45.10;;;;;;5053873;28;20272;-86
2023/05/29 11:52:55;;;;;;;6.80;2.35;;;32.90;44.70;;;;;;5053624;28;20238;-87
2023/05/29 11:55:23;;;;;;;5.03;2.05;;;33.00;43.70;;;;;;5054832;28;20214;-93
2023/05/29 11:57:51;;;;;;;5.53;2.40;;;33.30;45.10;;;;;;5054552;28;20285;-87
2023/05/29 12:00:19;;;;;;;4.10;2.40;;;32.80;42.90;;;;;;5054286;28;20631;-88
2023/05/29 12:02:47;;;;;;;5.50;2.72;;;32.20;43.40;;;;;;5054212;28;20191;-87
2023/05/29 12:05:18;;;;;;;4.30;2.20;;;32.30;43.70;;;;;;5054641;28;20219;-87
2023/05/29 12:07:53;;;;;;;8.18;2.50;;;32.40;45.60;;;;;;5056335;28;20210;-88
2023/05/29 12:10:21;;;;;;;9.05;2.35;;;32.30;43.20;;;;;;5055297;28;20553;-85
2023/05/29 12:12:58;;;;;;;4.68;2.38;;;32.30;44.60;;;;;;5037626;28;20233;-86
2023/05/29 12:15:26;;;;;;;8.40;2.80;;;31.30;45.20;;;;;;5056009;28;20313;-87
2023/05/29 12:17:55;;;;;;;8.25;2.55;;;31.40;46.50;;;;;;5053494;28;20249;-87
2023/05/29 12:20:28;;;;;;;5.90;2.50;;;32.00;45.60;;;;;;5038108;28;20214;-87
2023/05/29 12:23:01;;;;;;;3.70;2.40;;;32.50;45.20;;;;;;5055114;28;20182;-90
2023/05/29 12:25:28;;;;;;;5.10;2.50;;;32.80;44.50;;;;;;5045003;28;20214;-91
2023/05/29 12:27:57;;;;;;;5.40;2.53;;;32.90;44.10;;;;;;5064385;28;20205;-92
2023/05/29 12:30:25;;;;;;;3.67;2.38;;;33.30;44.20;;;;;;5037562;28;20218;-90
2023/05/29 12:32:59;;;;;;;7.93;3.03;;;32.70;42.80;;;;;;5052924;28;20599;-90
2023/05/29 12:35:29;;;;;;;6.03;2.63;;;31.90;43.70;;;;;;5053538;28;20226;-89
2023/05/29 12:38:02;;;;;;;7.68;2.78;;;32.30;46.00;;;;;;5037008;28;20277;-89
2023/05/29 12:40:31;;;;;;;7.15;3.20;;;32.80;43.40;;;;;;5052558;28;20206;-89
2023/05/29 12:43:05;;;;;;;7.70;2.70;;;32.30;44.60;;;;;;5036150;28;20221;-89
2023/05/29 12:45:37;;;;;;;5.82;2.65;;;32.50;43.90;;;;;;5041373;28;20218;-91
2023/05/29 12:48:06;;;;;;;6.50;2.20;;;33.10;44.60;;;;;;5048730;28;20268;-90
2023/05/29 12:50:40;;;;;;;5.32;2.38;;;32.90;44.60;;;;;;5068104;28;20242;-90
2023/05/29 12:53:16;;;;;;;10.27;2.92;;;32.90;44.00;;;;;;5069688;28;20229;-90
2023/05/29 12:55:45;;;;;;;7.93;2.30;;;33.00;44.70;;;;;;5053572;28;20245;-90